sensor_id;sensor_type;location;lat;lon;timestamp;P1;durP1;ratioP1;P2;durP2;ratioP2
72301;SDS011;60235;52.234;5.186;2022-12-19T00:00:03;38.17;;;13.10;;
72301;SDS011;60235;52.234;5.186;2022-12-19T00:02:29;34.05;;;13.15;;
72301;SDS011;60235;52.234;5.186;2022-12-19T00:04:55;43.45;;;14.77;;
72301;SDS011;60235;52.234;5.186;2022-12-19T00:07:21;39.15;;;14.50;;
72301;SDS011;60235;52.234;5.186;2022-12-19T00:09:47;32.92;;;11.93;;
72301;SDS011;60235;52.234;5.186;2022-12-19T00:12:13;32.67;;;11.85;;
72301;SDS011;60235;52.234;5.186;2022-12-19T00:14:39;27.42;;;11.48;;
72301;SDS011;60235;52.234;5.186;2022-12-19T00:17:05;19.23;;;8.40;;
72301;SDS011;60235;52.234;5.186;2022-12-19T00:19:30;40.85;;;13.90;;
72301;SDS011;60235;52.234;5.186;2022-12-19T00:21:56;36.70;;;13.48;;
72301;SDS011;60235;52.234;5.186;2022-12-19T00:24:22;43.13;;;14.57;;
72301;SDS011;60235;52.234;5.186;2022-12-19T00:26:48;37.75;;;14.20;;
72301;SDS011;60235;52.234;5.186;2022-12-19T00:29:14;36.55;;;12.13;;
72301;SDS011;60235;52.234;5.186;2022-12-19T00:31:40;45.75;;;14.95;;
72301;SDS011;60235;52.234;5.186;2022-12-19T00:34:07;36.83;;;12.55;;
72301;SDS011;60235;52.234;5.186;2022-12-19T00:36:33;38.65;;;13.80;;
72301;SDS011;60235;52.234;5.186;2022-12-19T00:39:00;36.70;;;14.35;;
72301;SDS011;60235;52.234;5.186;2022-12-19T00:41:31;32.60;;;12.63;;
72301;SDS011;60235;52.234;5.186;2022-12-19T00:44:08;36.80;;;12.95;;
72301;SDS011;60235;52.234;5.186;2022-12-19T00:46:35;33.83;;;12.50;;
72301;SDS011;60235;52.234;5.186;2022-12-19T00:49:01;37.50;;;11.73;;
72301;SDS011;60235;52.234;5.186;2022-12-19T00:51:29;38.95;;;13.77;;
72301;SDS011;60235;52.234;5.186;2022-12-19T00:53:55;27.05;;;11.43;;
72301;SDS011;60235;52.234;5.186;2022-12-19T00:56:23;30.45;;;11.95;;
72301;SDS011;60235;52.234;5.186;2022-12-19T00:58:49;31.35;;;12.30;;
72301;SDS011;60235;52.234;5.186;2022-12-19T01:01:19;35.60;;;12.82;;
72301;SDS011;60235;52.234;5.186;2022-12-19T01:03:46;33.63;;;12.63;;
72301;SDS011;60235;52.234;5.186;2022-12-19T01:06:12;25.83;;;10.10;;
72301;SDS011;60235;52.234;5.186;2022-12-19T01:08:38;34.17;;;11.70;;
72301;SDS011;60235;52.234;5.186;2022-12-19T01:11:04;30.38;;;11.55;;
72301;SDS011;60235;52.234;5.186;2022-12-19T01:13:31;26.55;;;10.18;;
72301;SDS011;60235;52.234;5.186;2022-12-19T01:16:04;27.98;;;10.77;;
72301;SDS011;60235;52.234;5.186;2022-12-19T01:18:30;35.38;;;13.82;;
72301;SDS011;60235;52.234;5.186;2022-12-19T01:20:58;25.98;;;11.23;;
72301;SDS011;60235;52.234;5.186;2022-12-19T01:23:24;29.35;;;10.73;;
72301;SDS011;60235;52.234;5.186;2022-12-19T01:25:54;21.65;;;8.80;;
72301;SDS011;60235;52.234;5.186;2022-12-19T01:28:20;30.08;;;11.55;;
72301;SDS011;60235;52.234;5.186;2022-12-19T01:30:46;30.30;;;10.40;;
72301;SDS011;60235;52.234;5.186;2022-12-19T01:33:13;33.47;;;12.05;;
72301;SDS011;60235;52.234;5.186;2022-12-19T01:35:41;32.92;;;12.05;;
72301;SDS011;60235;52.234;5.186;2022-12-19T01:38:10;34.28;;;12.82;;
72301;SDS011;60235;52.234;5.186;2022-12-19T01:40:37;36.38;;;12.82;;
72301;SDS011;60235;52.234;5.186;2022-12-19T01:43:04;33.97;;;12.93;;
72301;SDS011;60235;52.234;5.186;2022-12-19T01:45:30;29.42;;;10.77;;
72301;SDS011;60235;52.234;5.186;2022-12-19T01:48:01;35.70;;;13.23;;
72301;SDS011;60235;52.234;5.186;2022-12-19T01:53:13;37.72;;;13.63;;
72301;SDS011;60235;52.234;5.186;2022-12-19T01:55:39;36.38;;;13.43;;
72301;SDS011;60235;52.234;5.186;2022-12-19T01:58:06;47.45;;;16.83;;
72301;SDS011;60235;52.234;5.186;2022-12-19T02:00:32;37.85;;;13.40;;
72301;SDS011;60235;52.234;5.186;2022-12-19T02:05:27;44.60;;;14.55;;
72301;SDS011;60235;52.234;5.186;2022-12-19T02:07:54;43.17;;;14.10;;
72301;SDS011;60235;52.234;5.186;2022-12-19T02:10:20;39.63;;;13.25;;
72301;SDS011;60235;52.234;5.186;2022-12-19T02:12:46;43.55;;;14.48;;
72301;SDS011;60235;52.234;5.186;2022-12-19T02:15:12;45.65;;;14.38;;
72301;SDS011;60235;52.234;5.186;2022-12-19T02:17:42;37.90;;;14.38;;
72301;SDS011;60235;52.234;5.186;2022-12-19T02:27:51;45.95;;;15.52;;
72301;SDS011;60235;52.234;5.186;2022-12-19T02:33:04;29.73;;;11.13;;
72301;SDS011;60235;52.234;5.186;2022-12-19T02:38:07;47.38;;;15.63;;
72301;SDS011;60235;52.234;5.186;2022-12-19T02:43:20;47.65;;;15.48;;
72301;SDS011;60235;52.234;5.186;2022-12-19T02:45:47;35.22;;;12.07;;
72301;SDS011;60235;52.234;5.186;2022-12-19T02:48:13;39.65;;;12.77;;
72301;SDS011;60235;52.234;5.186;2022-12-19T02:50:41;33.85;;;12.02;;
72301;SDS011;60235;52.234;5.186;2022-12-19T02:53:12;39.78;;;14.05;;
72301;SDS011;60235;52.234;5.186;2022-12-19T02:58:31;41.85;;;12.68;;
72301;SDS011;60235;52.234;5.186;2022-12-19T03:01:04;41.40;;;14.00;;
72301;SDS011;60235;52.234;5.186;2022-12-19T03:06:03;28.63;;;9.68;;
72301;SDS011;60235;52.234;5.186;2022-12-19T03:08:36;33.75;;;11.13;;
72301;SDS011;60235;52.234;5.186;2022-12-19T03:11:06;31.90;;;12.32;;
72301;SDS011;60235;52.234;5.186;2022-12-19T03:13:37;35.33;;;12.32;;
72301;SDS011;60235;52.234;5.186;2022-12-19T03:16:05;44.15;;;13.20;;
72301;SDS011;60235;52.234;5.186;2022-12-19T03:18:33;41.60;;;13.27;;
72301;SDS011;60235;52.234;5.186;2022-12-19T03:23:37;39.20;;;10.75;;
72301;SDS011;60235;52.234;5.186;2022-12-19T03:26:05;40.30;;;12.93;;
72301;SDS011;60235;52.234;5.186;2022-12-19T03:28:40;34.85;;;12.93;;
72301;SDS011;60235;52.234;5.186;2022-12-19T03:31:07;45.08;;;14.63;;
72301;SDS011;60235;52.234;5.186;2022-12-19T03:33:34;31.60;;;12.18;;
72301;SDS011;60235;52.234;5.186;2022-12-19T03:36:03;35.33;;;11.85;;
72301;SDS011;60235;52.234;5.186;2022-12-19T03:38:30;29.90;;;10.25;;
72301;SDS011;60235;52.234;5.186;2022-12-19T03:40:56;38.33;;;12.32;;
72301;SDS011;60235;52.234;5.186;2022-12-19T03:43:24;37.17;;;12.13;;
72301;SDS011;60235;52.234;5.186;2022-12-19T03:48:23;36.58;;;12.98;;
72301;SDS011;60235;52.234;5.186;2022-12-19T03:51:25;36.15;;;12.70;;
72301;SDS011;60235;52.234;5.186;2022-12-19T03:56:21;36.05;;;10.80;;
72301;SDS011;60235;52.234;5.186;2022-12-19T03:58:51;36.45;;;10.63;;
72301;SDS011;60235;52.234;5.186;2022-12-19T04:01:20;28.75;;;9.43;;
72301;SDS011;60235;52.234;5.186;2022-12-19T04:03:46;28.80;;;8.55;;
72301;SDS011;60235;52.234;5.186;2022-12-19T04:06:14;24.70;;;8.35;;
72301;SDS011;60235;52.234;5.186;2022-12-19T04:08:40;26.00;;;9.40;;
72301;SDS011;60235;52.234;5.186;2022-12-19T04:11:08;26.35;;;9.70;;
72301;SDS011;60235;52.234;5.186;2022-12-19T04:13:58;27.65;;;9.55;;
72301;SDS011;60235;52.234;5.186;2022-12-19T04:19:27;19.48;;;7.60;;
72301;SDS011;60235;52.234;5.186;2022-12-19T04:21:55;26.67;;;8.73;;
72301;SDS011;60235;52.234;5.186;2022-12-19T04:24:25;22.60;;;7.57;;
72301;SDS011;60235;52.234;5.186;2022-12-19T04:26:52;20.98;;;8.25;;
72301;SDS011;60235;52.234;5.186;2022-12-19T04:29:19;20.17;;;8.07;;
72301;SDS011;60235;52.234;5.186;2022-12-19T04:31:45;22.88;;;8.30;;
72301;SDS011;60235;52.234;5.186;2022-12-19T04:34:11;24.15;;;7.97;;
72301;SDS011;60235;52.234;5.186;2022-12-19T04:36:37;21.10;;;8.45;;
72301;SDS011;60235;52.234;5.186;2022-12-19T04:39:04;23.02;;;7.85;;
72301;SDS011;60235;52.234;5.186;2022-12-19T04:41:30;22.38;;;9.23;;
72301;SDS011;60235;52.234;5.186;2022-12-19T04:43:56;22.30;;;7.90;;
72301;SDS011;60235;52.234;5.186;2022-12-19T04:46:22;25.50;;;9.35;;
72301;SDS011;60235;52.234;5.186;2022-12-19T04:48:48;21.42;;;8.27;;
72301;SDS011;60235;52.234;5.186;2022-12-19T04:51:14;25.33;;;9.50;;
72301;SDS011;60235;52.234;5.186;2022-12-19T04:53:40;24.60;;;8.27;;
72301;SDS011;60235;52.234;5.186;2022-12-19T04:56:06;24.58;;;9.63;;
72301;SDS011;60235;52.234;5.186;2022-12-19T04:58:34;21.75;;;8.93;;
72301;SDS011;60235;52.234;5.186;2022-12-19T05:01:00;28.73;;;10.00;;
72301;SDS011;60235;52.234;5.186;2022-12-19T05:03:26;26.27;;;9.52;;
72301;SDS011;60235;52.234;5.186;2022-12-19T05:05:52;20.20;;;7.18;;
72301;SDS011;60235;52.234;5.186;2022-12-19T05:08:18;25.52;;;8.52;;
72301;SDS011;60235;52.234;5.186;2022-12-19T05:10:44;22.25;;;8.52;;
72301;SDS011;60235;52.234;5.186;2022-12-19T05:13:10;20.35;;;8.55;;
72301;SDS011;60235;52.234;5.186;2022-12-19T05:15:36;22.23;;;8.32;;
72301;SDS011;60235;52.234;5.186;2022-12-19T05:18:02;19.83;;;8.50;;
72301;SDS011;60235;52.234;5.186;2022-12-19T05:20:29;21.42;;;8.70;;
72301;SDS011;60235;52.234;5.186;2022-12-19T05:22:55;17.98;;;7.32;;
72301;SDS011;60235;52.234;5.186;2022-12-19T05:25:21;21.13;;;8.27;;
72301;SDS011;60235;52.234;5.186;2022-12-19T05:27:47;17.45;;;7.47;;
72301;SDS011;60235;52.234;5.186;2022-12-19T05:30:13;19.02;;;7.82;;
72301;SDS011;60235;52.234;5.186;2022-12-19T05:32:38;18.83;;;7.07;;
72301;SDS011;60235;52.234;5.186;2022-12-19T05:35:05;17.17;;;7.43;;
72301;SDS011;60235;52.234;5.186;2022-12-19T05:37:31;21.75;;;8.13;;
72301;SDS011;60235;52.234;5.186;2022-12-19T05:39:57;21.52;;;8.52;;
72301;SDS011;60235;52.234;5.186;2022-12-19T05:42:24;20.27;;;8.43;;
72301;SDS011;60235;52.234;5.186;2022-12-19T05:44:50;19.20;;;8.02;;
72301;SDS011;60235;52.234;5.186;2022-12-19T05:47:16;20.52;;;7.50;;
72301;SDS011;60235;52.234;5.186;2022-12-19T05:49:44;15.95;;;7.22;;
72301;SDS011;60235;52.234;5.186;2022-12-19T05:52:10;21.77;;;8.60;;
72301;SDS011;60235;52.234;5.186;2022-12-19T05:54:36;20.88;;;8.23;;
72301;SDS011;60235;52.234;5.186;2022-12-19T05:57:02;22.40;;;8.55;;
72301;SDS011;60235;52.234;5.186;2022-12-19T05:59:28;24.45;;;8.35;;
72301;SDS011;60235;52.234;5.186;2022-12-19T06:01:54;20.80;;;8.52;;
72301;SDS011;60235;52.234;5.186;2022-12-19T06:04:20;25.83;;;9.95;;
72301;SDS011;60235;52.234;5.186;2022-12-19T06:06:46;26.65;;;12.38;;
72301;SDS011;60235;52.234;5.186;2022-12-19T06:09:12;24.17;;;9.38;;
72301;SDS011;60235;52.234;5.186;2022-12-19T06:11:38;19.42;;;9.25;;
72301;SDS011;60235;52.234;5.186;2022-12-19T06:14:06;24.27;;;8.90;;
72301;SDS011;60235;52.234;5.186;2022-12-19T06:16:32;32.40;;;12.02;;
72301;SDS011;60235;52.234;5.186;2022-12-19T06:18:58;27.40;;;10.32;;
72301;SDS011;60235;52.234;5.186;2022-12-19T06:21:24;27.40;;;10.75;;
72301;SDS011;60235;52.234;5.186;2022-12-19T06:23:50;22.63;;;8.98;;
72301;SDS011;60235;52.234;5.186;2022-12-19T06:26:17;26.33;;;8.77;;
72301;SDS011;60235;52.234;5.186;2022-12-19T06:28:43;20.45;;;8.85;;
72301;SDS011;60235;52.234;5.186;2022-12-19T06:31:09;25.08;;;9.75;;
72301;SDS011;60235;52.234;5.186;2022-12-19T06:33:36;21.13;;;8.55;;
72301;SDS011;60235;52.234;5.186;2022-12-19T06:36:04;23.27;;;9.68;;
72301;SDS011;60235;52.234;5.186;2022-12-19T06:38:30;21.02;;;9.32;;
72301;SDS011;60235;52.234;5.186;2022-12-19T06:40:56;29.38;;;10.23;;
72301;SDS011;60235;52.234;5.186;2022-12-19T06:43:41;26.75;;;10.68;;
72301;SDS011;60235;52.234;5.186;2022-12-19T06:46:07;25.50;;;9.77;;
72301;SDS011;60235;52.234;5.186;2022-12-19T06:48:34;21.17;;;9.13;;
72301;SDS011;60235;52.234;5.186;2022-12-19T06:51:00;24.30;;;10.05;;
72301;SDS011;60235;52.234;5.186;2022-12-19T06:53:26;23.35;;;10.35;;
72301;SDS011;60235;52.234;5.186;2022-12-19T06:55:53;19.48;;;7.03;;
72301;SDS011;60235;52.234;5.186;2022-12-19T06:58:20;16.98;;;7.28;;
72301;SDS011;60235;52.234;5.186;2022-12-19T07:00:46;28.27;;;10.15;;
72301;SDS011;60235;52.234;5.186;2022-12-19T07:03:13;22.85;;;9.55;;
72301;SDS011;60235;52.234;5.186;2022-12-19T07:05:40;21.10;;;9.48;;
72301;SDS011;60235;52.234;5.186;2022-12-19T07:08:07;30.02;;;9.73;;
72301;SDS011;60235;52.234;5.186;2022-12-19T07:10:33;18.80;;;8.27;;
72301;SDS011;60235;52.234;5.186;2022-12-19T07:12:59;27.00;;;10.55;;
72301;SDS011;60235;52.234;5.186;2022-12-19T07:15:25;23.08;;;9.60;;
72301;SDS011;60235;52.234;5.186;2022-12-19T07:17:51;25.50;;;10.43;;
72301;SDS011;60235;52.234;5.186;2022-12-19T07:20:17;26.60;;;10.75;;
72301;SDS011;60235;52.234;5.186;2022-12-19T07:22:44;30.92;;;12.15;;
72301;SDS011;60235;52.234;5.186;2022-12-19T07:25:10;30.55;;;12.18;;
72301;SDS011;60235;52.234;5.186;2022-12-19T07:27:36;34.00;;;13.75;;
72301;SDS011;60235;52.234;5.186;2022-12-19T07:30:03;30.85;;;12.20;;
72301;SDS011;60235;52.234;5.186;2022-12-19T07:32:31;29.73;;;11.25;;
72301;SDS011;60235;52.234;5.186;2022-12-19T07:34:57;33.40;;;12.82;;
72301;SDS011;60235;52.234;5.186;2022-12-19T07:37:23;31.15;;;10.73;;
72301;SDS011;60235;52.234;5.186;2022-12-19T07:39:49;27.83;;;11.73;;
72301;SDS011;60235;52.234;5.186;2022-12-19T07:42:17;23.70;;;9.77;;
72301;SDS011;60235;52.234;5.186;2022-12-19T07:44:43;29.05;;;11.63;;
72301;SDS011;60235;52.234;5.186;2022-12-19T07:47:09;27.48;;;11.02;;
72301;SDS011;60235;52.234;5.186;2022-12-19T07:49:35;27.55;;;11.18;;
72301;SDS011;60235;52.234;5.186;2022-12-19T07:52:01;26.40;;;10.30;;
72301;SDS011;60235;52.234;5.186;2022-12-19T07:54:27;24.65;;;9.43;;
72301;SDS011;60235;52.234;5.186;2022-12-19T07:56:53;29.20;;;10.68;;
72301;SDS011;60235;52.234;5.186;2022-12-19T07:59:19;21.98;;;8.43;;
72301;SDS011;60235;52.234;5.186;2022-12-19T08:01:45;24.55;;;8.57;;
72301;SDS011;60235;52.234;5.186;2022-12-19T08:04:11;23.23;;;9.13;;
72301;SDS011;60235;52.234;5.186;2022-12-19T08:06:37;20.80;;;9.07;;
72301;SDS011;60235;52.234;5.186;2022-12-19T08:09:03;22.00;;;8.55;;
72301;SDS011;60235;52.234;5.186;2022-12-19T08:11:29;20.05;;;8.18;;
72301;SDS011;60235;52.234;5.186;2022-12-19T08:13:56;21.33;;;7.60;;
72301;SDS011;60235;52.234;5.186;2022-12-19T08:16:23;21.08;;;7.68;;
72301;SDS011;60235;52.234;5.186;2022-12-19T08:18:50;22.73;;;8.88;;
72301;SDS011;60235;52.234;5.186;2022-12-19T08:21:16;19.77;;;7.25;;
72301;SDS011;60235;52.234;5.186;2022-12-19T08:23:42;20.73;;;7.90;;
72301;SDS011;60235;52.234;5.186;2022-12-19T08:26:10;20.58;;;8.02;;
72301;SDS011;60235;52.234;5.186;2022-12-19T08:28:37;19.08;;;7.43;;
72301;SDS011;60235;52.234;5.186;2022-12-19T08:31:07;20.00;;;7.95;;
72301;SDS011;60235;52.234;5.186;2022-12-19T08:33:34;20.48;;;7.50;;
72301;SDS011;60235;52.234;5.186;2022-12-19T08:36:07;19.85;;;7.80;;
72301;SDS011;60235;52.234;5.186;2022-12-19T08:38:33;20.33;;;8.38;;
72301;SDS011;60235;52.234;5.186;2022-12-19T08:41:00;20.13;;;8.98;;
72301;SDS011;60235;52.234;5.186;2022-12-19T08:43:26;17.60;;;8.00;;
72301;SDS011;60235;52.234;5.186;2022-12-19T08:45:52;21.48;;;8.45;;
72301;SDS011;60235;52.234;5.186;2022-12-19T08:48:18;18.73;;;7.90;;
72301;SDS011;60235;52.234;5.186;2022-12-19T08:51:04;22.40;;;8.98;;
72301;SDS011;60235;52.234;5.186;2022-12-19T08:53:31;18.58;;;8.05;;
72301;SDS011;60235;52.234;5.186;2022-12-19T08:56:02;19.13;;;8.32;;
72301;SDS011;60235;52.234;5.186;2022-12-19T08:58:28;17.55;;;7.90;;
72301;SDS011;60235;52.234;5.186;2022-12-19T09:00:58;19.98;;;8.88;;
72301;SDS011;60235;52.234;5.186;2022-12-19T09:03:24;22.13;;;8.50;;
72301;SDS011;60235;52.234;5.186;2022-12-19T09:05:57;14.68;;;7.25;;
72301;SDS011;60235;52.234;5.186;2022-12-19T09:08:23;16.42;;;7.78;;
72301;SDS011;60235;52.234;5.186;2022-12-19T09:10:55;19.65;;;8.98;;
72301;SDS011;60235;52.234;5.186;2022-12-19T09:13:21;21.95;;;9.15;;
72301;SDS011;60235;52.234;5.186;2022-12-19T09:15:47;18.65;;;8.43;;
72301;SDS011;60235;52.234;5.186;2022-12-19T09:18:14;22.15;;;8.40;;
72301;SDS011;60235;52.234;5.186;2022-12-19T09:20:40;16.33;;;7.25;;
72301;SDS011;60235;52.234;5.186;2022-12-19T09:23:06;17.75;;;7.38;;
72301;SDS011;60235;52.234;5.186;2022-12-19T09:25:32;19.38;;;7.95;;
72301;SDS011;60235;52.234;5.186;2022-12-19T09:27:58;17.08;;;7.68;;
72301;SDS011;60235;52.234;5.186;2022-12-19T09:30:24;18.38;;;7.65;;
72301;SDS011;60235;52.234;5.186;2022-12-19T09:32:50;16.90;;;8.10;;
72301;SDS011;60235;52.234;5.186;2022-12-19T09:35:16;17.17;;;6.45;;
72301;SDS011;60235;52.234;5.186;2022-12-19T09:37:42;15.93;;;7.15;;
72301;SDS011;60235;52.234;5.186;2022-12-19T09:40:10;16.40;;;6.45;;
72301;SDS011;60235;52.234;5.186;2022-12-19T09:47:57;15.95;;;6.47;;
72301;SDS011;60235;52.234;5.186;2022-12-19T09:50:38;15.00;;;6.47;;
72301;SDS011;60235;52.234;5.186;2022-12-19T09:53:08;14.73;;;6.63;;
72301;SDS011;60235;52.234;5.186;2022-12-19T09:55:38;16.60;;;7.55;;
72301;SDS011;60235;52.234;5.186;2022-12-19T09:58:06;15.43;;;6.82;;
72301;SDS011;60235;52.234;5.186;2022-12-19T10:00:40;15.38;;;5.85;;
72301;SDS011;60235;52.234;5.186;2022-12-19T10:03:13;15.35;;;6.40;;
72301;SDS011;60235;52.234;5.186;2022-12-19T10:08:35;14.40;;;6.20;;
72301;SDS011;60235;52.234;5.186;2022-12-19T10:11:05;17.42;;;7.00;;
72301;SDS011;60235;52.234;5.186;2022-12-19T10:16:08;16.85;;;6.38;;
72301;SDS011;60235;52.234;5.186;2022-12-19T10:18:52;19.63;;;7.18;;
72301;SDS011;60235;52.234;5.186;2022-12-19T10:23:55;17.85;;;7.03;;
72301;SDS011;60235;52.234;5.186;2022-12-19T10:26:32;15.45;;;7.07;;
72301;SDS011;60235;52.234;5.186;2022-12-19T10:31:31;13.70;;;6.07;;
72301;SDS011;60235;52.234;5.186;2022-12-19T10:36:44;15.93;;;6.35;;
72301;SDS011;60235;52.234;5.186;2022-12-19T10:39:15;17.60;;;6.88;;
72301;SDS011;60235;52.234;5.186;2022-12-19T10:41:43;17.67;;;6.00;;
72301;SDS011;60235;52.234;5.186;2022-12-19T10:44:10;13.07;;;6.05;;
72301;SDS011;60235;52.234;5.186;2022-12-19T10:46:49;17.73;;;6.88;;
72301;SDS011;60235;52.234;5.186;2022-12-19T10:49:18;14.45;;;6.03;;
72301;SDS011;60235;52.234;5.186;2022-12-19T10:54:21;10.68;;;5.25;;
72301;SDS011;60235;52.234;5.186;2022-12-19T10:56:47;14.80;;;5.20;;
72301;SDS011;60235;52.234;5.186;2022-12-19T10:59:15;16.33;;;6.03;;
72301;SDS011;60235;52.234;5.186;2022-12-19T11:01:41;12.70;;;5.65;;
72301;SDS011;60235;52.234;5.186;2022-12-19T11:04:24;12.48;;;5.55;;
72301;SDS011;60235;52.234;5.186;2022-12-19T11:06:52;12.55;;;5.65;;
72301;SDS011;60235;52.234;5.186;2022-12-19T11:09:29;13.48;;;5.50;;
72301;SDS011;60235;52.234;5.186;2022-12-19T11:14:28;13.80;;;4.95;;
72301;SDS011;60235;52.234;5.186;2022-12-19T11:16:55;13.90;;;5.35;;
72301;SDS011;60235;52.234;5.186;2022-12-19T11:19:31;12.13;;;5.65;;
72301;SDS011;60235;52.234;5.186;2022-12-19T11:21:58;13.25;;;5.78;;
72301;SDS011;60235;52.234;5.186;2022-12-19T11:24:29;14.23;;;4.68;;
72301;SDS011;60235;52.234;5.186;2022-12-19T11:26:59;10.65;;;5.20;;
72301;SDS011;60235;52.234;5.186;2022-12-19T11:32:03;12.75;;;5.70;;
72301;SDS011;60235;52.234;5.186;2022-12-19T11:34:30;13.52;;;6.05;;
72301;SDS011;60235;52.234;5.186;2022-12-19T11:39:32;15.02;;;5.93;;
72301;SDS011;60235;52.234;5.186;2022-12-19T11:50:20;14.90;;;5.93;;
72301;SDS011;60235;52.234;5.186;2022-12-19T11:53:34;13.35;;;6.18;;
72301;SDS011;60235;52.234;5.186;2022-12-19T11:58:18;13.90;;;5.90;;
72301;SDS011;60235;52.234;5.186;2022-12-19T12:00:46;12.38;;;5.60;;
72301;SDS011;60235;52.234;5.186;2022-12-19T12:05:47;16.33;;;7.18;;
72301;SDS011;60235;52.234;5.186;2022-12-19T12:16:25;12.43;;;5.35;;
72301;SDS011;60235;52.234;5.186;2022-12-19T12:19:01;12.10;;;5.15;;
72301;SDS011;60235;52.234;5.186;2022-12-19T12:26:34;13.10;;;5.18;;
72301;SDS011;60235;52.234;5.186;2022-12-19T12:31:58;12.60;;;5.10;;
72301;SDS011;60235;52.234;5.186;2022-12-19T12:39:43;13.93;;;5.82;;
72301;SDS011;60235;52.234;5.186;2022-12-19T12:44:40;11.40;;;4.85;;
72301;SDS011;60235;52.234;5.186;2022-12-19T12:47:20;13.25;;;5.22;;
72301;SDS011;60235;52.234;5.186;2022-12-19T12:52:42;11.55;;;4.82;;
72301;SDS011;60235;52.234;5.186;2022-12-19T12:55:30;12.75;;;4.63;;
72301;SDS011;60235;52.234;5.186;2022-12-19T12:57:57;12.48;;;4.75;;
72301;SDS011;60235;52.234;5.186;2022-12-19T13:00:33;12.32;;;4.97;;
72301;SDS011;60235;52.234;5.186;2022-12-19T13:08:24;10.93;;;4.25;;
72301;SDS011;60235;52.234;5.186;2022-12-19T13:10:54;9.13;;;4.47;;
72301;SDS011;60235;52.234;5.186;2022-12-19T13:13:20;10.50;;;4.57;;
72301;SDS011;60235;52.234;5.186;2022-12-19T13:19:12;12.38;;;4.20;;
72301;SDS011;60235;52.234;5.186;2022-12-19T13:22:21;11.88;;;5.03;;
72301;SDS011;60235;52.234;5.186;2022-12-19T13:24:36;11.40;;;4.45;;
72301;SDS011;60235;52.234;5.186;2022-12-19T13:27:02;17.98;;;5.05;;
72301;SDS011;60235;52.234;5.186;2022-12-19T13:29:32;10.40;;;4.28;;
72301;SDS011;60235;52.234;5.186;2022-12-19T13:32:12;11.80;;;4.82;;
72301;SDS011;60235;52.234;5.186;2022-12-19T13:34:38;10.63;;;4.00;;
72301;SDS011;60235;52.234;5.186;2022-12-19T13:42:22;9.85;;;4.00;;
72301;SDS011;60235;52.234;5.186;2022-12-19T13:45:21;10.50;;;5.03;;
72301;SDS011;60235;52.234;5.186;2022-12-19T13:50:17;8.95;;;3.78;;
72301;SDS011;60235;52.234;5.186;2022-12-19T13:52:48;11.02;;;4.10;;
72301;SDS011;60235;52.234;5.186;2022-12-19T13:55:14;11.70;;;4.47;;
72301;SDS011;60235;52.234;5.186;2022-12-19T13:57:40;10.68;;;4.20;;
72301;SDS011;60235;52.234;5.186;2022-12-19T14:00:09;9.82;;;4.05;;
72301;SDS011;60235;52.234;5.186;2022-12-19T14:05:01;10.50;;;3.80;;
72301;SDS011;60235;52.234;5.186;2022-12-19T14:07:38;10.35;;;3.88;;
72301;SDS011;60235;52.234;5.186;2022-12-19T14:10:50;9.60;;;4.47;;
72301;SDS011;60235;52.234;5.186;2022-12-19T14:12:51;10.65;;;4.30;;
72301;SDS011;60235;52.234;5.186;2022-12-19T14:15:40;10.75;;;3.25;;
72301;SDS011;60235;52.234;5.186;2022-12-19T14:20:34;8.43;;;4.13;;
72301;SDS011;60235;52.234;5.186;2022-12-19T14:23:00;9.45;;;3.90;;
72301;SDS011;60235;52.234;5.186;2022-12-19T14:25:30;8.13;;;3.28;;
72301;SDS011;60235;52.234;5.186;2022-12-19T14:28:00;9.15;;;3.50;;
72301;SDS011;60235;52.234;5.186;2022-12-19T14:30:29;10.77;;;4.18;;
72301;SDS011;60235;52.234;5.186;2022-12-19T14:32:56;9.98;;;3.72;;
72301;SDS011;60235;52.234;5.186;2022-12-19T14:35:24;8.35;;;3.40;;
72301;SDS011;60235;52.234;5.186;2022-12-19T14:37:58;10.15;;;3.95;;
72301;SDS011;60235;52.234;5.186;2022-12-19T14:40:26;10.38;;;3.85;;
72301;SDS011;60235;52.234;5.186;2022-12-19T14:42:57;7.40;;;3.15;;
72301;SDS011;60235;52.234;5.186;2022-12-19T14:45:43;8.57;;;3.10;;
72301;SDS011;60235;52.234;5.186;2022-12-19T14:51:04;8.63;;;3.42;;
72301;SDS011;60235;52.234;5.186;2022-12-19T14:53:30;9.23;;;3.45;;
72301;SDS011;60235;52.234;5.186;2022-12-19T14:56:10;11.25;;;3.95;;
72301;SDS011;60235;52.234;5.186;2022-12-19T14:58:37;9.77;;;3.42;;
72301;SDS011;60235;52.234;5.186;2022-12-19T15:01:04;7.65;;;3.30;;
72301;SDS011;60235;52.234;5.186;2022-12-19T15:03:32;9.00;;;3.92;;
72301;SDS011;60235;52.234;5.186;2022-12-19T15:06:05;9.13;;;3.70;;
72301;SDS011;60235;52.234;5.186;2022-12-19T15:08:33;8.90;;;4.00;;
72301;SDS011;60235;52.234;5.186;2022-12-19T15:11:00;10.20;;;3.90;;
72301;SDS011;60235;52.234;5.186;2022-12-19T15:13:56;11.10;;;4.10;;
72301;SDS011;60235;52.234;5.186;2022-12-19T15:16:24;9.32;;;3.83;;
72301;SDS011;60235;52.234;5.186;2022-12-19T15:18:51;12.38;;;3.70;;
72301;SDS011;60235;52.234;5.186;2022-12-19T15:21:18;9.35;;;3.53;;
72301;SDS011;60235;52.234;5.186;2022-12-19T15:23:45;8.75;;;3.92;;
72301;SDS011;60235;52.234;5.186;2022-12-19T15:26:12;9.13;;;3.90;;
72301;SDS011;60235;52.234;5.186;2022-12-19T15:28:40;9.82;;;4.05;;
72301;SDS011;60235;52.234;5.186;2022-12-19T15:33:51;11.43;;;4.00;;
72301;SDS011;60235;52.234;5.186;2022-12-19T15:36:17;11.48;;;4.28;;
72301;SDS011;60235;52.234;5.186;2022-12-19T15:38:44;8.05;;;3.75;;
72301;SDS011;60235;52.234;5.186;2022-12-19T15:41:11;10.63;;;3.60;;
72301;SDS011;60235;52.234;5.186;2022-12-19T15:43:40;10.30;;;4.15;;
72301;SDS011;60235;52.234;5.186;2022-12-19T15:46:07;9.88;;;4.20;;
72301;SDS011;60235;52.234;5.186;2022-12-19T15:48:34;9.32;;;4.03;;
72301;SDS011;60235;52.234;5.186;2022-12-19T15:51:02;11.10;;;3.70;;
72301;SDS011;60235;52.234;5.186;2022-12-19T15:53:28;11.88;;;4.00;;
72301;SDS011;60235;52.234;5.186;2022-12-19T15:55:56;10.95;;;4.07;;
72301;SDS011;60235;52.234;5.186;2022-12-19T15:58:24;10.02;;;4.22;;
72301;SDS011;60235;52.234;5.186;2022-12-19T16:00:54;11.40;;;3.70;;
72301;SDS011;60235;52.234;5.186;2022-12-19T16:03:20;11.73;;;3.90;;
72301;SDS011;60235;52.234;5.186;2022-12-19T16:05:46;8.30;;;3.75;;
72301;SDS011;60235;52.234;5.186;2022-12-19T16:08:14;11.07;;;4.07;;
72301;SDS011;60235;52.234;5.186;2022-12-19T16:10:40;8.38;;;3.72;;
72301;SDS011;60235;52.234;5.186;2022-12-19T16:13:08;11.52;;;4.70;;
72301;SDS011;60235;52.234;5.186;2022-12-19T16:15:39;11.68;;;4.53;;
72301;SDS011;60235;52.234;5.186;2022-12-19T16:18:05;10.68;;;4.30;;
72301;SDS011;60235;52.234;5.186;2022-12-19T16:20:33;9.68;;;4.00;;
72301;SDS011;60235;52.234;5.186;2022-12-19T16:23:03;11.23;;;4.60;;
72301;SDS011;60235;52.234;5.186;2022-12-19T16:25:35;10.05;;;4.55;;
72301;SDS011;60235;52.234;5.186;2022-12-19T16:28:02;10.77;;;4.20;;
72301;SDS011;60235;52.234;5.186;2022-12-19T16:30:30;12.75;;;4.18;;
72301;SDS011;60235;52.234;5.186;2022-12-19T16:32:56;11.88;;;4.25;;
72301;SDS011;60235;52.234;5.186;2022-12-19T16:35:23;9.50;;;4.35;;
72301;SDS011;60235;52.234;5.186;2022-12-19T16:37:49;10.70;;;3.90;;
72301;SDS011;60235;52.234;5.186;2022-12-19T16:40:19;9.90;;;3.92;;
72301;SDS011;60235;52.234;5.186;2022-12-19T16:42:46;9.68;;;4.00;;
72301;SDS011;60235;52.234;5.186;2022-12-19T16:47:41;9.50;;;4.25;;
72301;SDS011;60235;52.234;5.186;2022-12-19T16:50:15;10.60;;;3.95;;
72301;SDS011;60235;52.234;5.186;2022-12-19T16:52:42;12.88;;;5.22;;